NLSK1: Solomon River, Niles, KS

                                SHEF ID:       NLSK1     SOLOMON R AT NILES, KS
STATION TYPE:

PRECIP STAGE RIV-FLOW BAT-LOAD
in ft cfs volt
Ccp-Rev Ccp-Rev Ccp-Rev Ccp-Rev
(America/Chicago)
06/16 00:00 0.00 10.39 1199 12.27
06/16 01:00 0.00 10.31 1180 12.27
06/16 02:00 0.00 10.23 1161 12.25
06/16 03:00 0.00 10.16 1144 12.23
06/16 04:00 0.00 10.10 1129 12.22
06/16 05:00 0.00 10.03 1113 12.20
06/16 06:00 0.00 10.00 1106 12.17
06/16 07:00 0.00 9.94 1091 12.13
06/16 08:00 0.00 9.88 1077 12.12
06/16 09:00 0.00 9.83 1066 12.19
06/16 10:00 0.00 9.79 1056 12.70
06/16 11:00 0.00 9.73 1043 12.86
06/16 12:00 0.00 9.68 1031 13.07
06/16 13:00 0.00 9.63 1020 12.99
06/16 14:00 0.00 9.57 1006 12.88
06/16 15:00 0.00 9.51 992 12.91
06/16 16:00 0.00 9.46 981 12.86
06/16 17:00 0.00 9.40 968 12.83
06/16 18:00 0.00 9.34 954 12.80
06/16 19:00 0.00 9.28 941 12.43
06/16 20:00 0.00 9.23 930 12.36
06/16 21:00 0.00 9.17 917 12.31
06/16 22:00 0.00 9.13 908 12.31
06/16 23:00 0.00 9.06 893 12.30
Data processed at Mon 22Jun2026 03:41 GMT

NOTICE: If you are parsing this page

Please convert to using our Data API. Starting early 2026 we will be migrating to: https://water.usace.army.mil with modern pages rendered in JavaScript. When this migration completes you will no longer be able to scrape this page! CWMSDataAPI (CDA)

Timeseries IDs (TSIDs)

TSIDs used from left to right in the data table
NLSK.Precip-Inc.Total.1Hour.1Hour.Ccp-Rev
NLSK.Stage.Inst.1Hour.0.Ccp-Rev
NLSK.Flow.Inst.1Hour.0.Ccp-Rev
NLSK.Volt-Battery Load.Inst.1Hour.0.Ccp-Rev

                            

All information presented herein is the property of the government of the United States of America and may be revised or deleted at any time without prior notice. Dissemination of this information without the expressed written consent of the Public Affairs Office, Tulsa District U.S. Army Corps of Engineers is strictly prohibited. These data are gathered electronically and, as presented, have NOT undergone any form of quality control. These data are NOT guaranteed to be valid or correct.